Time;durP1;ratioP1;P1;durP2;ratioP2;P2;SDS_P1;SDS_P2;PMS_P1;PMS_P2;Temp;Humidity;BMP_temperature;BMP_pressure;BME280_temperature;BME280_humidity;BME280_pressure;Samples;Min_cycle;Max_cycle;Signal;HPM_P1;HPM_P2
2022/07/08 00:02:05;;;;;;;11.70;1.08;;;17.00;99.90;;;;;;5076635;28;20060;-66
2022/07/08 00:04:31;;;;;;;7.60;1.40;;;17.00;99.90;;;;;;5076766;28;20118;-66
2022/07/08 00:06:57;;;;;;;4.70;1.00;;;16.90;99.90;;;;;;5076274;28;20074;-66
2022/07/08 00:09:23;;;;;;;2.53;0.98;;;16.90;99.90;;;;;;5076407;28;20039;-66
2022/07/08 00:11:48;;;;;;;5.40;1.10;;;16.80;99.90;;;;;;5076401;28;20037;-66
2022/07/08 00:14:14;;;;;;;4.00;0.90;;;16.80;99.90;;;;;;5076442;28;20033;-66
2022/07/08 00:16:40;;;;;;;3.90;1.10;;;16.70;99.90;;;;;;5076650;28;20067;-66
2022/07/08 00:19:07;;;;;;;6.80;1.10;;;16.70;99.90;;;;;;5076683;28;20094;-66
2022/07/08 00:21:33;;;;;;;4.82;1.15;;;16.70;99.90;;;;;;5076193;28;20060;-66
2022/07/08 00:23:59;;;;;;;6.82;1.20;;;16.70;99.90;;;;;;5076566;28;20043;-68
2022/07/08 00:26:25;;;;;;;2.53;0.98;;;16.70;99.90;;;;;;5076185;28;20123;-66
2022/07/08 00:28:51;;;;;;;5.13;1.23;;;16.60;99.90;;;;;;5076126;28;20044;-66
2022/07/08 00:31:17;;;;;;;6.75;0.82;;;16.60;99.90;;;;;;5076027;28;20068;-67
2022/07/08 00:33:42;;;;;;;2.97;1.13;;;16.50;99.90;;;;;;5076150;28;20036;-66
2022/07/08 00:36:08;;;;;;;6.03;1.10;;;16.50;99.90;;;;;;5076072;28;20127;-67
2022/07/08 00:38:34;;;;;;;3.25;0.90;;;16.50;99.90;;;;;;5076085;28;20744;-68
2022/07/08 00:41:00;;;;;;;4.90;1.23;;;16.50;99.90;;;;;;5076094;28;20033;-66
2022/07/08 00:43:54;;;;;;;6.65;0.95;;;16.40;99.90;;;;;;5075875;28;20178;-67
2022/07/08 00:46:21;;;;;;;2.25;1.13;;;16.50;99.90;;;;;;5066725;28;20495;-66
2022/07/08 00:48:48;;;;;;;4.15;0.90;;;16.40;99.90;;;;;;5075718;28;20127;-66
2022/07/08 00:51:16;;;;;;;5.07;1.17;;;16.40;99.90;;;;;;5076012;28;20036;-66
2022/07/08 00:53:45;;;;;;;3.30;0.98;;;16.30;99.90;;;;;;5075939;28;20040;-66
2022/07/08 00:56:11;;;;;;;3.13;1.30;;;16.30;99.90;;;;;;5075731;28;20048;-66
2022/07/08 00:58:39;;;;;;;3.40;1.30;;;16.30;99.90;;;;;;5075467;28;20041;-66
2022/07/08 01:01:06;;;;;;;9.38;1.20;;;16.20;99.90;;;;;;5075481;28;20033;-66
2022/07/08 01:03:31;;;;;;;4.47;1.27;;;16.20;99.90;;;;;;5075489;28;20507;-66
2022/07/08 01:05:57;;;;;;;4.20;1.20;;;16.20;99.90;;;;;;5075382;28;20037;-66
2022/07/08 01:08:23;;;;;;;6.15;1.65;;;16.20;99.90;;;;;;5075349;28;20059;-66
2022/07/08 01:10:49;;;;;;;2.33;1.00;;;16.20;99.90;;;;;;5074361;28;20047;-66
2022/07/08 01:13:18;;;;;;;5.43;0.80;;;16.10;99.90;;;;;;5075335;28;20526;-66
2022/07/08 01:15:45;;;;;;;5.78;1.30;;;16.10;99.90;;;;;;5075182;28;20043;-68
2022/07/08 01:18:25;;;;;;;3.05;1.00;;;16.00;99.90;;;;;;5075268;28;20083;-66
2022/07/08 01:20:51;;;;;;;6.35;1.10;;;16.10;99.90;;;;;;5075218;28;20129;-66
2022/07/08 01:23:17;;;;;;;1.85;0.90;;;16.00;99.90;;;;;;5074895;28;20056;-68
2022/07/08 01:25:43;;;;;;;4.57;1.30;;;16.10;99.90;;;;;;5075065;28;20033;-67
2022/07/08 01:28:09;;;;;;;4.82;1.10;;;16.00;99.90;;;;;;5074997;28;20079;-67
2022/07/08 01:30:35;;;;;;;4.68;0.95;;;16.00;99.90;;;;;;5074837;28;20620;-67
2022/07/08 01:33:02;;;;;;;5.78;1.60;;;15.90;99.90;;;;;;5074918;28;20230;-67
2022/07/08 01:35:28;;;;;;;6.53;1.20;;;15.90;99.90;;;;;;5074872;28;20072;-66
2022/07/08 01:37:53;;;;;;;4.05;1.15;;;15.90;99.90;;;;;;5074753;28;20049;-65
2022/07/08 01:40:19;;;;;;;3.78;1.10;;;15.90;99.90;;;;;;5074791;28;20052;-65
2022/07/08 01:42:45;;;;;;;2.47;0.88;;;15.80;99.90;;;;;;5074649;28;20056;-66
2022/07/08 01:45:11;;;;;;;8.30;1.17;;;15.80;99.90;;;;;;5074634;28;20482;-66
2022/07/08 01:47:37;;;;;;;3.88;1.42;;;15.80;99.90;;;;;;5074749;28;20024;-66
2022/07/08 01:50:03;;;;;;;3.47;1.20;;;15.70;99.90;;;;;;5074501;28;20033;-70
2022/07/08 01:52:29;;;;;;;4.75;1.17;;;15.70;99.90;;;;;;5074472;28;20052;-69
2022/07/08 01:54:55;;;;;;;5.55;1.15;;;15.60;99.90;;;;;;5074511;28;20503;-67
2022/07/08 01:57:21;;;;;;;6.22;1.13;;;15.60;99.90;;;;;;5074339;28;20043;-66
2022/07/08 01:59:50;;;;;;;5.75;1.10;;;15.60;99.90;;;;;;5074443;28;20399;-70
2022/07/08 02:02:18;;;;;;;2.78;1.27;;;15.60;99.90;;;;;;5074444;28;20053;-67
2022/07/08 02:04:43;;;;;;;8.32;1.67;;;15.50;99.90;;;;;;5074462;28;20037;-67
2022/07/08 02:07:10;;;;;;;3.67;1.48;;;15.50;99.90;;;;;;5074319;28;20055;-67
2022/07/08 02:09:36;;;;;;;3.65;2.05;;;15.40;99.90;;;;;;5073323;28;20131;-66
2022/07/08 02:12:18;;;;;;;3.38;1.45;;;15.40;99.90;;;;;;5074097;28;20040;-66
2022/07/08 02:14:55;;;;;;;8.15;1.55;;;15.40;99.90;;;;;;5074196;28;20077;-65
2022/07/08 02:17:23;;;;;;;3.15;1.33;;;15.40;99.90;;;;;;5074340;28;20051;-65
2022/07/08 02:19:49;;;;;;;2.92;1.10;;;15.40;99.90;;;;;;5074074;28;20037;-65
2022/07/08 02:22:15;;;;;;;3.83;1.20;;;15.40;99.90;;;;;;5073471;28;20105;-65
2022/07/08 02:24:41;;;;;;;5.55;0.90;;;15.40;99.90;;;;;;5074073;28;20573;-67
2022/07/08 02:27:07;;;;;;;2.60;1.02;;;15.40;99.90;;;;;;5074102;28;20094;-71
2022/07/08 02:29:33;;;;;;;3.80;1.20;;;15.30;99.90;;;;;;5074004;28;20040;-66
2022/07/08 02:32:00;;;;;;;5.50;1.35;;;15.30;99.90;;;;;;5073937;28;20037;-66
2022/07/08 02:34:26;;;;;;;5.53;1.30;;;15.30;99.90;;;;;;5073928;28;20120;-66
2022/07/08 02:36:52;;;;;;;2.03;1.10;;;15.30;99.90;;;;;;5073886;28;20037;-66
2022/07/08 02:39:18;;;;;;;3.97;1.17;;;15.30;99.90;;;;;;5074030;28;20036;-65
2022/07/08 02:41:44;;;;;;;8.95;1.25;;;15.30;99.90;;;;;;5073799;28;20047;-66
2022/07/08 02:44:10;;;;;;;6.03;1.20;;;15.30;99.90;;;;;;5073887;28;20090;-65
2022/07/08 02:46:38;;;;;;;3.20;1.10;;;15.30;99.90;;;;;;5066224;28;20170;-65
2022/07/08 02:49:04;;;;;;;9.50;1.50;;;15.30;99.90;;;;;;5053880;28;20128;-66
2022/07/08 02:51:30;;;;;;;5.22;1.20;;;15.40;99.90;;;;;;5053652;28;20047;-66
2022/07/08 02:53:56;;;;;;;4.88;1.20;;;15.30;99.90;;;;;;5053757;28;20500;-65
2022/07/08 02:56:22;;;;;;;2.00;1.15;;;15.30;99.90;;;;;;5054039;28;20496;-66
2022/07/08 02:58:47;;;;;;;2.15;1.20;;;15.40;99.90;;;;;;5053789;28;20493;-67
2022/07/08 03:01:13;;;;;;;2.78;1.10;;;15.30;99.90;;;;;;5054003;28;20048;-67
2022/07/08 03:03:39;;;;;;;7.28;1.80;;;15.30;99.90;;;;;;5053763;28;20053;-66
2022/07/08 03:06:05;;;;;;;2.78;1.00;;;15.30;99.90;;;;;;5053635;28;20527;-66
2022/07/08 03:08:31;;;;;;;1.83;1.02;;;15.30;99.90;;;;;;5053570;28;20047;-66
2022/07/08 03:10:56;;;;;;;4.70;1.50;;;15.30;99.90;;;;;;5053699;28;20044;-65
2022/07/08 03:13:22;;;;;;;2.40;1.15;;;15.40;99.90;;;;;;5053663;28;20040;-65
2022/07/08 03:15:48;;;;;;;5.38;1.23;;;15.30;99.90;;;;;;5053607;28;20048;-65
2022/07/08 03:18:14;;;;;;;3.95;1.25;;;15.30;99.90;;;;;;5053672;28;20353;-65
2022/07/08 03:20:39;;;;;;;7.85;1.02;;;15.40;99.90;;;;;;5053514;28;20045;-66
2022/07/08 03:23:05;;;;;;;2.40;1.45;;;15.40;99.90;;;;;;5053641;28;20080;-66
2022/07/08 03:25:33;;;;;;;6.68;1.50;;;15.30;99.90;;;;;;5053494;28;20044;-66
2022/07/08 03:27:59;;;;;;;3.08;1.27;;;15.40;99.90;;;;;;5053222;28;20087;-66
2022/07/08 03:30:25;;;;;;;3.67;1.50;;;15.20;99.90;;;;;;5052161;28;20049;-65
2022/07/08 03:32:50;;;;;;;2.53;1.15;;;15.20;99.90;;;;;;5053943;28;20468;-65
2022/07/08 03:35:16;;;;;;;2.78;1.05;;;15.20;99.90;;;;;;5056738;28;20071;-65
2022/07/08 03:37:43;;;;;;;5.63;0.95;;;15.30;99.90;;;;;;5057017;28;20040;-65
2022/07/08 03:42:55;;;;;;;2.95;1.30;;;15.20;99.90;;;;;;5057026;28;20463;-66
2022/07/08 03:45:21;;;;;;;6.75;1.48;;;15.30;99.90;;;;;;5056965;28;20068;-66
2022/07/08 03:47:47;;;;;;;4.22;1.25;;;15.20;99.90;;;;;;5056699;28;20037;-66
2022/07/08 03:50:14;;;;;;;7.57;1.23;;;15.20;99.90;;;;;;5056658;28;20044;-64
2022/07/08 03:52:40;;;;;;;3.33;0.98;;;15.20;99.90;;;;;;5056732;28;20040;-65
2022/07/08 03:55:07;;;;;;;2.63;1.20;;;15.20;99.90;;;;;;5056769;28;20365;-65
2022/07/08 03:57:32;;;;;;;2.78;1.20;;;15.20;99.90;;;;;;5056875;28;20037;-64
2022/07/08 03:59:58;;;;;;;3.72;1.40;;;15.10;99.90;;;;;;5056745;28;20067;-64
2022/07/08 04:02:24;;;;;;;2.22;1.00;;;15.20;99.90;;;;;;5056529;28;20072;-64
2022/07/08 04:04:50;;;;;;;2.90;1.30;;;15.20;99.90;;;;;;5056735;28;20048;-64
2022/07/08 04:07:16;;;;;;;3.90;1.30;;;15.20;99.90;;;;;;5056510;28;20033;-64
2022/07/08 04:09:42;;;;;;;7.43;1.48;;;15.20;99.90;;;;;;5056601;28;20040;-64
2022/07/08 04:12:09;;;;;;;6.65;1.40;;;15.10;99.90;;;;;;5056602;28;20140;-64
2022/07/08 04:14:35;;;;;;;5.60;1.60;;;15.00;99.90;;;;;;5056465;28;20072;-65
2022/07/08 04:17:01;;;;;;;4.05;1.35;;;15.00;99.90;;;;;;5056143;28;20110;-66
2022/07/08 04:19:26;;;;;;;3.00;1.38;;;15.10;99.90;;;;;;5056185;28;20503;-66
2022/07/08 04:21:52;;;;;;;5.30;1.65;;;15.10;99.90;;;;;;5056275;28;20071;-66
2022/07/08 04:24:18;;;;;;;5.20;1.88;;;15.10;99.90;;;;;;5056328;28;20029;-66
2022/07/08 04:26:44;;;;;;;2.50;1.30;;;15.00;99.90;;;;;;5056487;28;20033;-66
2022/07/08 04:29:10;;;;;;;4.85;1.90;;;14.90;99.90;;;;;;5056267;28;20523;-66
2022/07/08 04:31:36;;;;;;;2.38;1.27;;;15.10;99.90;;;;;;5055838;28;20090;-65
2022/07/08 04:34:02;;;;;;;1.75;1.13;;;14.90;99.90;;;;;;5056101;28;20396;-66
2022/07/08 04:36:27;;;;;;;1.77;1.08;;;14.90;99.90;;;;;;5056152;28;20447;-66
2022/07/08 04:38:53;;;;;;;4.53;1.50;;;15.00;99.90;;;;;;5056017;28;20079;-66
2022/07/08 04:41:19;;;;;;;3.58;1.52;;;15.10;99.90;;;;;;5056000;28;20037;-66
2022/07/08 04:43:45;;;;;;;3.40;1.27;;;15.10;99.90;;;;;;5055771;28;20052;-66
2022/07/08 04:46:11;;;;;;;2.92;1.40;;;15.00;99.90;;;;;;5055242;28;20134;-66
2022/07/08 04:48:37;;;;;;;2.35;1.05;;;15.00;99.90;;;;;;5055588;28;20531;-67
2022/07/08 04:51:03;;;;;;;4.85;1.67;;;15.00;99.90;;;;;;5055679;28;20123;-67
2022/07/08 04:53:29;;;;;;;6.55;1.50;;;15.00;99.90;;;;;;5055940;28;20037;-67
2022/07/08 04:55:55;;;;;;;2.22;1.10;;;15.10;99.90;;;;;;5055721;28;20090;-66
2022/07/08 04:58:20;;;;;;;2.67;1.20;;;15.00;99.90;;;;;;5055638;28;20466;-66
2022/07/08 05:00:46;;;;;;;4.07;1.60;;;15.10;99.90;;;;;;5054249;28;20125;-66
2022/07/08 05:03:12;;;;;;;2.95;1.33;;;15.10;99.90;;;;;;5055690;28;20067;-65
2022/07/08 05:05:38;;;;;;;6.25;1.20;;;15.10;99.90;;;;;;5055501;28;20095;-65
2022/07/08 05:08:04;;;;;;;3.30;1.17;;;15.10;99.90;;;;;;5055629;28;20412;-65
2022/07/08 05:10:30;;;;;;;4.60;1.55;;;15.10;99.90;;;;;;5055459;28;20567;-65
2022/07/08 05:12:57;;;;;;;4.07;1.48;;;15.20;99.90;;;;;;5055143;28;20443;-65
2022/07/08 05:15:24;;;;;;;4.90;1.52;;;15.40;99.90;;;;;;5053893;28;20036;-65
2022/07/08 05:17:52;;;;;;;5.25;2.25;;;15.60;99.90;;;;;;5055200;28;20032;-65
2022/07/08 05:20:19;;;;;;;7.25;2.00;;;15.70;99.90;;;;;;5055088;28;20033;-66
2022/07/08 05:22:45;;;;;;;3.15;1.40;;;15.60;99.90;;;;;;5055257;28;20428;-65
2022/07/08 05:25:11;;;;;;;2.83;1.33;;;15.70;99.90;;;;;;5055210;28;20496;-66
2022/07/08 05:27:38;;;;;;;2.45;1.48;;;15.70;99.90;;;;;;5055208;28;20036;-65
2022/07/08 05:30:06;;;;;;;2.15;1.30;;;16.00;99.90;;;;;;5054837;28;20075;-66
2022/07/08 05:32:32;;;;;;;8.57;1.33;;;16.30;99.90;;;;;;5054026;28;20174;-65
2022/07/08 05:34:58;;;;;;;3.20;1.30;;;16.30;99.90;;;;;;5054855;28;20589;-65
2022/07/08 05:37:24;;;;;;;5.50;1.50;;;16.60;99.90;;;;;;5053336;28;20049;-66
2022/07/08 05:39:50;;;;;;;5.10;1.35;;;16.70;99.90;;;;;;5054684;28;20041;-65
2022/07/08 05:42:16;;;;;;;5.72;1.70;;;16.90;99.90;;;;;;5054781;28;20420;-65
2022/07/08 05:44:41;;;;;;;5.57;1.35;;;16.80;99.90;;;;;;5054780;28;20033;-66
2022/07/08 05:47:08;;;;;;;2.70;1.33;;;16.40;99.90;;;;;;5054962;28;20039;-65
2022/07/08 05:49:35;;;;;;;5.68;1.90;;;16.60;99.90;;;;;;5054817;28;20045;-65
2022/07/08 05:52:02;;;;;;;5.53;1.45;;;16.90;99.90;;;;;;5054738;28;20029;-65
2022/07/08 05:54:28;;;;;;;1.98;1.33;;;17.30;99.90;;;;;;5054756;28;20047;-66
2022/07/08 05:56:53;;;;;;;5.13;1.33;;;17.30;99.90;;;;;;5053971;28;20496;-66
2022/07/08 05:59:19;;;;;;;2.53;1.38;;;17.60;99.90;;;;;;5054589;28;20045;-65
2022/07/08 06:01:45;;;;;;;7.03;1.45;;;17.00;99.90;;;;;;5054448;28;20039;-65
2022/07/08 06:04:11;;;;;;;4.65;1.45;;;17.60;99.90;;;;;;5054479;28;20492;-65
2022/07/08 06:06:37;;;;;;;5.55;1.10;;;17.90;99.90;;;;;;5054436;28;20091;-65
2022/07/08 06:09:03;;;;;;;3.50;1.33;;;18.00;99.90;;;;;;5054352;28;20071;-65
2022/07/08 06:11:29;;;;;;;2.63;1.23;;;18.20;99.90;;;;;;5054182;28;20040;-65
2022/07/08 06:13:55;;;;;;;3.15;1.33;;;18.20;99.90;;;;;;5054257;28;20044;-66
2022/07/08 06:16:21;;;;;;;5.38;1.33;;;18.50;99.90;;;;;;5054154;28;20100;-65
2022/07/08 06:18:46;;;;;;;5.75;1.40;;;18.80;99.90;;;;;;5054047;28;20037;-65
2022/07/08 06:21:12;;;;;;;5.10;1.20;;;18.80;99.90;;;;;;5054158;28;20039;-66
2022/07/08 06:23:38;;;;;;;1.80;1.00;;;18.90;99.90;;;;;;5054063;28;20530;-66
2022/07/08 06:26:05;;;;;;;1.95;1.00;;;18.50;99.90;;;;;;5054362;28;20571;-66
2022/07/08 06:28:30;;;;;;;4.75;1.25;;;18.10;99.90;;;;;;5054086;28;20562;-66
2022/07/08 06:30:57;;;;;;;4.32;1.10;;;18.00;99.90;;;;;;5056805;28;20036;-66
2022/07/08 06:33:22;;;;;;;5.38;1.25;;;17.80;99.90;;;;;;5073940;28;20471;-66
2022/07/08 06:35:48;;;;;;;4.13;1.40;;;18.00;99.90;;;;;;5074085;28;20060;-65
2022/07/08 06:38:14;;;;;;;2.00;1.02;;;19.20;99.90;;;;;;5073656;28;20032;-66
2022/07/08 06:40:40;;;;;;;3.03;1.10;;;18.70;99.90;;;;;;5073281;28;20028;-66
2022/07/08 06:43:05;;;;;;;3.13;0.90;;;18.10;99.90;;;;;;5073776;28;20234;-65
2022/07/08 06:45:32;;;;;;;3.55;1.00;;;18.00;99.90;;;;;;5072652;28;20051;-65
2022/07/08 06:48:01;;;;;;;5.18;1.40;;;18.20;99.90;;;;;;5073951;28;20127;-66
2022/07/08 06:50:28;;;;;;;2.53;1.10;;;18.00;99.90;;;;;;5073860;28;20042;-66
2022/07/08 06:52:54;;;;;;;4.93;0.82;;;17.80;99.90;;;;;;5073920;28;20071;-66
2022/07/08 06:55:20;;;;;;;4.97;1.08;;;18.30;99.90;;;;;;5073784;28;20504;-65
2022/07/08 06:57:46;;;;;;;4.30;1.15;;;18.30;99.90;;;;;;5073815;28;20071;-65
2022/07/08 07:00:12;;;;;;;4.75;1.23;;;17.90;99.90;;;;;;5070429;28;20131;-65
2022/07/08 07:02:38;;;;;;;2.33;0.70;;;18.00;99.90;;;;;;5073680;28;20040;-66
2022/07/08 07:05:05;;;;;;;4.07;1.10;;;18.00;99.90;;;;;;5073796;28;20045;-66
2022/07/08 07:07:31;;;;;;;1.60;0.90;;;18.60;99.90;;;;;;5073607;28;20126;-66
2022/07/08 07:09:57;;;;;;;1.98;1.30;;;18.40;99.90;;;;;;5076767;28;20144;-65
2022/07/08 07:12:23;;;;;;;4.47;1.05;;;18.20;99.90;;;;;;5077626;28;20153;-66
2022/07/08 07:14:49;;;;;;;2.65;0.82;;;18.30;99.90;;;;;;5077651;28;20077;-65
2022/07/08 07:17:19;;;;;;;1.95;1.08;;;18.20;99.90;;;;;;5077522;28;20143;-66
2022/07/08 07:19:47;;;;;;;4.07;1.42;;;18.40;99.90;;;;;;5077271;28;20058;-66
2022/07/08 07:22:13;;;;;;;5.03;1.25;;;18.30;99.90;;;;;;5077437;28;20048;-66
2022/07/08 07:24:39;;;;;;;4.95;1.05;;;18.50;99.90;;;;;;5077322;28;20659;-66
2022/07/08 07:27:05;;;;;;;4.15;1.50;;;18.60;99.90;;;;;;5077319;28;20040;-65
2022/07/08 07:29:31;;;;;;;2.65;0.98;;;18.40;99.90;;;;;;5077311;28;20029;-65
2022/07/08 07:31:57;;;;;;;1.73;1.00;;;18.40;99.90;;;;;;5077365;28;20086;-66
2022/07/08 07:34:23;;;;;;;8.38;1.10;;;18.90;99.90;;;;;;5077214;28;20441;-66
2022/07/08 07:36:48;;;;;;;2.33;0.80;;;19.30;99.90;;;;;;5077182;28;20434;-66
2022/07/08 07:39:14;;;;;;;2.25;0.95;;;19.10;99.90;;;;;;5077244;28;20052;-65
2022/07/08 07:41:40;;;;;;;3.17;1.00;;;19.00;99.90;;;;;;5077015;28;20522;-66
2022/07/08 07:44:06;;;;;;;1.98;0.98;;;18.60;99.90;;;;;;5077003;28;20052;-66
2022/07/08 07:46:33;;;;;;;2.63;0.80;;;18.70;99.90;;;;;;5077041;28;20036;-65
2022/07/08 07:48:59;;;;;;;2.05;0.70;;;19.00;99.90;;;;;;5076922;28;20469;-66
2022/07/08 07:51:25;;;;;;;4.95;1.10;;;19.40;99.90;;;;;;5076782;28;20068;-66
2022/07/08 07:53:51;;;;;;;2.33;0.95;;;20.00;99.90;;;;;;5076734;28;20036;-66
2022/07/08 07:56:17;;;;;;;3.92;0.95;;;19.80;99.90;;;;;;5076876;28;20037;-66
2022/07/08 07:58:43;;;;;;;1.63;0.90;;;19.90;99.90;;;;;;5076784;28;20044;-66
2022/07/08 08:01:09;;;;;;;4.00;0.77;;;19.80;99.90;;;;;;5076728;28;20052;-66
2022/07/08 08:03:35;;;;;;;2.40;0.85;;;19.60;99.90;;;;;;5076730;28;20494;-67
2022/07/08 08:06:01;;;;;;;2.05;0.93;;;19.50;99.90;;;;;;5076725;28;20047;-66
2022/07/08 08:08:31;;;;;;;2.45;1.15;;;19.20;99.90;;;;;;5076593;28;20044;-66
2022/07/08 08:10:57;;;;;;;3.65;1.02;;;19.50;99.90;;;;;;5076514;28;20178;-66
2022/07/08 08:13:23;;;;;;;1.92;0.80;;;19.50;99.90;;;;;;5076615;28;20068;-66
2022/07/08 08:15:49;;;;;;;3.13;1.20;;;20.10;99.90;;;;;;5076479;28;20109;-66
2022/07/08 08:18:14;;;;;;;2.05;1.00;;;19.80;99.90;;;;;;5076366;28;20648;-66
2022/07/08 08:20:40;;;;;;;2.35;1.25;;;20.10;99.90;;;;;;5075712;28;20028;-66
2022/07/08 08:23:07;;;;;;;1.65;1.05;;;20.20;99.90;;;;;;5076400;28;20419;-66
2022/07/08 08:25:34;;;;;;;5.57;1.00;;;20.10;99.90;;;;;;5076433;28;20028;-66
2022/07/08 08:28:00;;;;;;;6.40;1.48;;;20.20;99.90;;;;;;5076293;28;20033;-66
2022/07/08 08:30:26;;;;;;;2.65;0.93;;;20.20;99.90;;;;;;5076111;28;20380;-65
2022/07/08 08:32:52;;;;;;;3.65;1.08;;;20.30;99.90;;;;;;5076282;28;20040;-66
2022/07/08 08:35:18;;;;;;;1.85;0.90;;;20.00;99.90;;;;;;5076047;28;20037;-66
2022/07/08 08:37:44;;;;;;;1.00;0.63;;;20.30;99.90;;;;;;5076231;28;20040;-67
2022/07/08 08:40:11;;;;;;;3.58;0.80;;;20.50;99.70;;;;;;5076120;28;20044;-66
2022/07/08 08:42:38;;;;;;;3.17;1.20;;;20.70;99.70;;;;;;5076018;28;20052;-65
2022/07/08 08:45:05;;;;;;;3.00;0.73;;;20.30;99.20;;;;;;5075988;28;20044;-65
2022/07/08 08:47:33;;;;;;;1.70;0.80;;;20.40;98.90;;;;;;5075941;28;20043;-66
2022/07/08 08:52:53;;;;;;;2.50;0.88;;;20.90;98.40;;;;;;5075886;28;20039;-66
2022/07/08 08:55:29;;;;;;;4.20;0.60;;;20.50;98.20;;;;;;5075695;28;20036;-66
2022/07/08 08:58:00;;;;;;;2.78;0.90;;;20.60;98.00;;;;;;5075797;28;20024;-66
2022/07/08 09:00:27;;;;;;;1.85;0.88;;;20.40;97.60;;;;;;5075480;28;20032;-66
2022/07/08 09:02:54;;;;;;;1.55;0.85;;;20.70;98.10;;;;;;5075404;28;20051;-67
2022/07/08 09:05:21;;;;;;;2.45;1.00;;;20.80;98.10;;;;;;5075383;28;20033;-65
2022/07/08 09:07:47;;;;;;;1.40;0.80;;;20.70;97.70;;;;;;5075567;28;20074;-65
2022/07/08 09:10:17;;;;;;;1.88;0.80;;;20.30;97.50;;;;;;5075482;28;20083;-66
2022/07/08 09:13:08;;;;;;;1.90;0.82;;;20.60;98.20;;;;;;5075329;28;20040;-66
2022/07/08 09:15:37;;;;;;;;;;;20.80;98.00;;;;;;5075817;28;20036;-66
2022/07/08 09:18:15;;;;;;;1.70;1.15;;;21.00;97.90;;;;;;5075501;28;19953;-66
2022/07/08 09:20:46;;;;;;;4.82;0.90;;;21.40;97.80;;;;;;5075113;28;20039;-66
2022/07/08 09:23:23;;;;;;;2.53;0.88;;;20.90;97.60;;;;;;5075112;28;20407;-66
2022/07/08 09:25:54;;;;;;;1.80;0.73;;;21.00;97.30;;;;;;5075123;28;20032;-66
2022/07/08 09:28:41;;;;;;;1.50;0.82;;;21.40;97.20;;;;;;5074656;28;20505;-65
2022/07/08 09:31:08;;;;;;;2.65;0.60;;;21.00;97.40;;;;;;5072587;28;20040;-66
2022/07/08 09:33:35;;;;;;;20.15;1.98;;;20.80;97.20;;;;;;5074841;28;20127;-66
2022/07/08 09:36:02;;;;;;;3.28;0.80;;;21.30;98.30;;;;;;5075013;28;20521;-66
2022/07/08 09:38:30;;;;;;;1.90;0.70;;;21.30;97.20;;;;;;5071473;28;20123;-66
2022/07/08 09:40:57;;;;;;;1.65;0.75;;;21.40;96.90;;;;;;5075080;28;20032;-66
2022/07/08 09:43:23;;;;;;;1.63;0.95;;;21.50;96.60;;;;;;5074600;28;20055;-66
2022/07/08 09:45:48;;;;;;;9.38;0.77;;;21.20;96.70;;;;;;5074731;28;20044;-66
2022/07/08 09:48:15;;;;;;;1.42;0.60;;;21.10;96.10;;;;;;5074605;28;20044;-66
2022/07/08 09:50:42;;;;;;;2.28;0.90;;;21.20;95.50;;;;;;5074804;28;20037;-66
2022/07/08 09:53:20;;;;;;;1.58;0.80;;;21.50;96.10;;;;;;5074600;28;20515;-65
2022/07/08 09:55:53;;;;;;;0.90;0.60;;;21.80;95.90;;;;;;5074550;28;20086;-66
2022/07/08 09:58:21;;;;;;;1.70;0.60;;;21.50;94.70;;;;;;5074621;28;20120;-66
2022/07/08 10:00:47;;;;;;;4.13;0.80;;;;;;;;;;5074360;28;20364;-66
2022/07/08 10:03:13;;;;;;;4.50;1.13;;;22.00;98.10;;;;;;5074492;28;20507;-66
2022/07/08 10:05:40;;;;;;;4.00;0.80;;;21.90;94.40;;;;;;5074486;28;20041;-66
2022/07/08 10:08:08;;;;;;;1.70;0.75;;;22.40;95.30;;;;;;5074740;28;20043;-65
2022/07/08 10:10:35;;;;;;;1.45;0.70;;;22.50;93.20;;;;;;5074360;28;20064;-67
2022/07/08 10:13:02;;;;;;;0.68;0.60;;;22.90;94.70;;;;;;5074413;28;20036;-66
2022/07/08 10:15:30;;;;;;;1.77;0.60;;;22.60;93.40;;;;;;5074290;28;20082;-66
2022/07/08 10:18:01;;;;;;;1.20;0.85;;;22.80;94.50;;;;;;5074292;28;20043;-66
2022/07/08 10:20:31;;;;;;;1.65;0.77;;;23.50;93.80;;;;;;5074275;28;20037;-67
2022/07/08 10:23:02;;;;;;;2.47;0.93;;;23.50;91.80;;;;;;5074241;28;20048;-66
2022/07/08 10:25:28;;;;;;;3.25;0.77;;;22.50;92.50;;;;;;5074210;28;20036;-65
2022/07/08 10:28:12;;;;;;;5.68;0.98;;;22.50;93.20;;;;;;5073945;28;20040;-66
2022/07/08 10:30:51;;;;;;;1.58;0.70;;;22.90;92.80;;;;;;5073924;28;20407;-65
2022/07/08 10:33:19;;;;;;;1.50;0.70;;;22.60;93.80;;;;;;5074204;28;20166;-65
2022/07/08 10:36:08;;;;;;;1.67;0.80;;;23.00;93.00;;;;;;5074106;28;20040;-66
2022/07/08 10:38:36;;;;;;;2.67;0.60;;;23.10;94.60;;;;;;5068664;28;20039;-67
2022/07/08 10:41:04;;;;;;;2.22;0.57;;;22.80;90.70;;;;;;5074214;28;20404;-65
2022/07/08 10:43:31;;;;;;;4.78;0.70;;;22.40;92.20;;;;;;5073612;28;20090;-66
2022/07/08 10:46:12;;;;;;;1.15;0.68;;;22.40;92.30;;;;;;5073935;28;20495;-65
2022/07/08 10:48:40;;;;;;;5.65;0.95;;;22.30;91.40;;;;;;5073731;28;20048;-65
2022/07/08 10:51:29;;;;;;;1.30;0.50;;;22.40;91.50;;;;;;5073841;28;20040;-65
2022/07/08 10:54:02;;;;;;;3.65;0.80;;;22.80;91.50;;;;;;5067181;28;20050;-66
2022/07/08 10:56:54;;;;;;;5.03;1.17;;;22.80;91.20;;;;;;5073880;28;20449;-65
2022/07/08 10:59:27;;;;;;;3.70;0.93;;;23.00;92.30;;;;;;5073837;28;20040;-67
2022/07/08 11:01:56;;;;;;;4.35;1.20;;;22.80;92.00;;;;;;5073801;28;20036;-66
2022/07/08 11:04:28;;;;;;;2.50;0.60;;;22.40;91.60;;;;;;5073820;28;20040;-66
2022/07/08 11:07:16;;;;;;;2.92;0.50;;;22.60;88.50;;;;;;5073826;28;20040;-66
2022/07/08 11:09:43;;;;;;;3.25;0.68;;;22.80;91.50;;;;;;5073694;28;20044;-66
2022/07/08 11:12:24;;;;;;;0.68;0.45;;;22.90;91.10;;;;;;5073840;28;20131;-66
2022/07/08 11:14:53;;;;;;;1.20;0.55;;;23.30;92.50;;;;;;5073663;28;20028;-66
2022/07/08 11:17:20;;;;;;;1.33;0.68;;;23.10;91.20;;;;;;5073606;28;20056;-65
2022/07/08 11:19:47;;;;;;;3.35;0.98;;;23.20;91.30;;;;;;5073474;28;20037;-66
2022/07/08 11:22:14;;;;;;;1.00;0.52;;;22.80;91.40;;;;;;5073401;28;20449;-66
2022/07/08 11:24:42;;;;;;;2.88;0.70;;;22.80;91.10;;;;;;5073552;28;20045;-66
2022/07/08 11:27:07;;;;;;;4.85;1.00;;;23.00;90.30;;;;;;5073504;28;20036;-66
2022/07/08 11:29:34;;;;;;;3.63;1.00;;;23.00;90.80;;;;;;5073236;28;20394;-66
2022/07/08 11:32:05;;;;;;;3.10;0.80;;;23.20;91.00;;;;;;5073153;28;20063;-66
2022/07/08 11:34:31;;;;;;;1.75;0.70;;;23.00;90.10;;;;;;5073500;28;20132;-65
2022/07/08 11:36:59;;;;;;;0.80;0.50;;;23.10;90.60;;;;;;5062951;28;20057;-65
2022/07/08 11:39:26;;;;;;;3.58;0.90;;;24.30;92.60;;;;;;5053487;28;20573;-67
2022/07/08 11:41:52;;;;;;;1.83;0.70;;;23.90;89.20;;;;;;5053313;28;20040;-66
2022/07/08 11:44:20;;;;;;;6.35;0.75;;;23.60;90.60;;;;;;5053395;28;20048;-66
2022/07/08 11:46:52;;;;;;;1.98;1.00;;;23.90;90.50;;;;;;5053133;28;20094;-66
2022/07/08 11:49:20;;;;;;;4.03;0.73;;;24.10;90.80;;;;;;5053169;28;20049;-65
2022/07/08 11:51:51;;;;;;;3.80;0.75;;;24.10;90.00;;;;;;5053085;28;20392;-66
2022/07/08 11:54:21;;;;;;;4.35;0.82;;;23.40;85.40;;;;;;5053349;28;20070;-65
2022/07/08 11:56:47;;;;;;;1.92;0.68;;;23.10;86.40;;;;;;5056739;28;20492;-65
2022/07/08 11:59:20;;;;;;;8.57;0.80;;;23.40;87.30;;;;;;5056611;28;20044;-66
2022/07/08 12:01:46;;;;;;;3.70;0.70;;;23.70;88.50;;;;;;5056744;28;20055;-65
2022/07/08 12:04:12;;;;;;;2.38;0.80;;;23.70;91.40;;;;;;5056661;28;20049;-65
2022/07/08 12:06:48;;;;;;;1.95;0.80;;;23.60;87.00;;;;;;5056683;28;20047;-67
2022/07/08 12:09:15;;;;;;;1.25;0.60;;;23.60;89.20;;;;;;5056667;28;20041;-66
2022/07/08 12:11:44;;;;;;;3.35;0.80;;;23.70;88.70;;;;;;5056589;28;20047;-65
2022/07/08 12:14:11;;;;;;;1.40;0.60;;;23.80;87.20;;;;;;5056606;28;20114;-65
2022/07/08 12:16:48;;;;;;;1.73;0.70;;;23.50;83.90;;;;;;5056568;28;20474;-65
2022/07/08 12:19:30;;;;;;;2.92;0.68;;;23.40;84.30;;;;;;5056519;28;20033;-65
2022/07/08 12:22:01;;;;;;;3.22;0.80;;;23.60;83.40;;;;;;5056276;28;20037;-66
2022/07/08 12:24:38;;;;;;;1.88;0.98;;;23.70;88.10;;;;;;5056326;28;20056;-67
2022/07/08 12:27:09;;;;;;;1.25;0.73;;;23.60;86.20;;;;;;5056341;28;20037;-65
2022/07/08 12:29:39;;;;;;;1.83;0.60;;;23.50;86.10;;;;;;5056233;28;20091;-66
2022/07/08 12:32:10;;;;;;;1.83;0.73;;;24.00;87.40;;;;;;5056373;28;20053;-65
2022/07/08 12:34:35;;;;;;;;;;;23.50;82.80;;;;;;5056798;28;20063;-67
2022/07/08 12:37:18;;;;;;;0.90;0.70;;;23.70;84.50;;;;;;5055888;28;19909;-66
2022/07/08 12:39:44;;;;;;;1.00;0.70;;;24.00;87.40;;;;;;5056167;28;20392;-66
2022/07/08 12:42:11;;;;;;;1.77;0.70;;;23.90;86.30;;;;;;5055939;28;20040;-65
2022/07/08 12:44:40;;;;;;;4.30;0.90;;;24.10;84.30;;;;;;5055980;28;20492;-67
2022/07/08 12:47:09;;;;;;;2.33;0.88;;;23.80;82.70;;;;;;5055943;28;20508;-65
2022/07/08 12:49:36;;;;;;;2.05;0.60;;;23.80;83.40;;;;;;5055788;28;20116;-67
2022/07/08 12:52:03;;;;;;;2.67;0.80;;;23.70;84.60;;;;;;5055846;28;20025;-66
2022/07/08 12:54:29;;;;;;;2.25;0.73;;;24.00;85.70;;;;;;5055742;28;20443;-66
2022/07/08 12:56:56;;;;;;;1.65;0.73;;;24.20;86.70;;;;;;5055767;28;20078;-65